createdAt,value
2022-10-23T00:00:20.246Z,99626.28
2022-10-23T00:02:52.228Z,99608.81
2022-10-23T00:05:20.510Z,99611.53
2022-10-23T00:07:51.038Z,99614.19
2022-10-23T00:10:18.250Z,99607.19
2022-10-23T00:12:45.694Z,99514.16
2022-10-23T00:15:12.764Z,99599.19
2022-10-23T00:17:40.313Z,99600.09
2022-10-23T00:20:08.206Z,99593.13
2022-10-23T00:22:35.275Z,99593.88
2022-10-23T00:25:02.281Z,99589.38
2022-10-23T00:27:30.027Z,99577.91
2022-10-23T00:29:56.985Z,99582.22
2022-10-23T00:32:24.544Z,99576.13
2022-10-23T00:34:51.733Z,99569.16
2022-10-23T00:37:18.831Z,99568.28
2022-10-23T00:39:45.798Z,99566.63
2022-10-23T00:42:16.110Z,99563.19
2022-10-23T00:44:43.963Z,99560.56
2022-10-23T00:47:11.894Z,99561.59
2022-10-23T00:49:42.038Z,99556.34
2022-10-23T00:52:12.121Z,99563.31
2022-10-23T00:54:43.707Z,99547.56
2022-10-23T00:57:12.671Z,99548.44
2022-10-23T00:59:39.909Z,99552.81
2022-10-23T01:02:07.364Z,99542.34
2022-10-23T01:04:35.058Z,99541.72
2022-10-23T01:07:02.229Z,99542.66
2022-10-23T01:09:37.898Z,99535.75
2022-10-23T01:12:07.946Z,99530.78
2022-10-23T01:14:43.970Z,99530.91
2022-10-23T01:17:11.398Z,99523.13
2022-10-23T01:19:42.985Z,99521.56
2022-10-23T01:22:45.211Z,99523.41
2022-10-23T01:25:27.860Z,99516.69
2022-10-23T01:28:01.834Z,99527.22
2022-10-23T01:30:29.685Z,99521.94
2022-10-23T01:32:59.779Z,99515.00
2022-10-23T01:35:26.764Z,99514.28
2022-10-23T01:38:02.830Z,99502.34
2022-10-23T01:40:33.071Z,99507.03
2022-10-23T01:43:04.755Z,99506.53
2022-10-23T01:45:37.400Z,99506.84
2022-10-23T01:48:09.134Z,99507.97
2022-10-23T01:50:38.188Z,99504.72
2022-10-23T01:53:05.312Z,99510.13
2022-10-23T01:55:33.124Z,99505.06
2022-10-23T01:58:04.857Z,99503.50
2022-10-23T02:00:40.019Z,99511.50
2022-10-23T02:03:09.123Z,99510.78
2022-10-23T02:05:39.379Z,99507.41
2022-10-23T02:08:06.720Z,99507.56
2022-10-23T02:10:45.158Z,99501.56
2022-10-23T02:13:12.098Z,99494.69
2022-10-23T02:15:45.428Z,99491.25
2022-10-23T02:18:31.245Z,99496.56
2022-10-23T02:21:08.049Z,99489.66
2022-10-23T02:23:40.964Z,99495.03
2022-10-23T02:26:10.650Z,99489.84
2022-10-23T02:28:41.417Z,99488.13
2022-10-23T02:31:12.882Z,99494.28
2022-10-23T02:33:40.711Z,99491.75
2022-10-23T02:36:07.873Z,99485.66
2022-10-23T02:38:37.955Z,99491.81
2022-10-23T02:41:12.850Z,99494.44
2022-10-23T02:43:43.843Z,99480.56
2022-10-23T02:46:25.496Z,99479.72
2022-10-23T02:49:04.049Z,99475.41
2022-10-23T02:51:40.877Z,99482.44
2022-10-23T02:54:13.557Z,99477.31
2022-10-23T02:56:45.009Z,99477.34
2022-10-23T02:59:20.638Z,99477.41
2022-10-23T03:01:51.115Z,99479.19
2022-10-23T03:04:19.596Z,99473.06
2022-10-23T03:06:49.512Z,99472.25
2022-10-23T03:09:18.181Z,99468.78
2022-10-23T03:11:45.429Z,99467.97
2022-10-23T03:14:13.748Z,99457.56
2022-10-23T03:16:40.759Z,99461.09
2022-10-23T03:19:09.459Z,99456.78
2022-10-23T03:21:37.117Z,99448.94
2022-10-23T03:24:07.897Z,99455.09
2022-10-23T03:26:40.373Z,99461.25
2022-10-23T03:29:07.438Z,99454.34
2022-10-23T03:31:40.687Z,99454.41
2022-10-23T03:34:11.286Z,99440.50
2022-10-23T03:36:40.616Z,99448.41
2022-10-23T03:39:08.986Z,99447.56
2022-10-23T03:41:35.906Z,99444.09
2022-10-23T03:46:34.889Z,99443.31
2022-10-23T03:49:01.949Z,99439.00
2022-10-23T03:51:29.088Z,99442.53
2022-10-23T03:53:57.769Z,99437.34
2022-10-23T03:56:24.686Z,99431.25
2022-10-23T03:58:51.696Z,99423.44
2022-10-23T04:01:18.748Z,99421.69
2022-10-23T04:03:46.473Z,99422.59
2022-10-23T04:06:15.630Z,99422.59
2022-10-23T04:08:44.069Z,99419.13
2022-10-23T04:11:19.808Z,99418.25
2022-10-23T04:13:46.952Z,99415.69
2022-10-23T04:16:14.008Z,99413.91
2022-10-23T04:18:41.854Z,99419.13
2022-10-23T04:21:10.304Z,99419.09
2022-10-23T04:23:38.272Z,99417.31
2022-10-23T04:26:09.614Z,99416.50
2022-10-23T04:28:36.585Z,99406.84
2022-10-23T04:31:03.650Z,99399.84
2022-10-23T04:33:30.797Z,99402.44
2022-10-23T04:35:58.361Z,99398.91
2022-10-23T04:38:26.294Z,99397.94
2022-10-23T04:40:53.264Z,99393.56
2022-10-23T04:43:22.249Z,99396.16
2022-10-23T04:45:50.158Z,99388.28
2022-10-23T04:48:17.206Z,99392.50
2022-10-23T04:51:04.026Z,99386.25
2022-10-23T04:53:49.790Z,99394.88
2022-10-23T04:56:28.389Z,99391.19
2022-10-23T05:01:39.650Z,99403.28
2022-10-23T05:04:08.326Z,99393.47
2022-10-23T05:06:52.735Z,99387.97
2022-10-23T05:09:36.340Z,99387.88
2022-10-23T05:12:17.254Z,99383.31
2022-10-23T05:14:44.855Z,99389.28
2022-10-23T05:17:17.544Z,99385.59
2022-10-23T05:19:51.039Z,99384.47
2022-10-23T05:22:18.571Z,99393.94
2022-10-23T05:24:50.595Z,99385.22
2022-10-23T05:27:21.959Z,99391.97
2022-10-23T05:29:50.737Z,99386.41
2022-10-23T05:34:48.611Z,99380.84
2022-10-23T05:37:16.828Z,99386.25
2022-10-23T05:39:45.320Z,99382.88
2022-10-23T05:42:14.807Z,99379.28
2022-10-23T05:44:42.494Z,99373.00
2022-10-23T05:47:36.841Z,99370.41
2022-10-23T05:50:15.920Z,99363.56
2022-10-23T05:53:15.073Z,99364.44
2022-10-23T05:56:09.080Z,99362.69
2022-10-23T05:58:44.018Z,99359.06
2022-10-23T06:01:26.155Z,99366.00
2022-10-23T06:04:04.845Z,99363.16
2022-10-23T06:06:50.135Z,99363.09
2022-10-23T06:09:18.090Z,99364.69
2022-10-23T06:11:47.407Z,99356.81
2022-10-23T06:14:19.629Z,99350.72
2022-10-23T06:16:49.029Z,99357.50
2022-10-23T06:19:16.050Z,99353.59
2022-10-23T06:21:43.895Z,99349.94
2022-10-23T06:24:13.738Z,99349.03
2022-10-23T06:26:54.901Z,99346.09
2022-10-23T06:29:32.610Z,99332.47
2022-10-23T06:32:00.988Z,99333.00
2022-10-23T06:34:28.013Z,99335.50
2022-10-23T06:36:55.110Z,99338.75
2022-10-23T06:39:43.395Z,99319.16
2022-10-23T06:42:15.512Z,99315.44
2022-10-23T06:44:54.565Z,99319.06
2022-10-23T06:47:51.594Z,99314.97
2022-10-23T06:50:33.649Z,99307.16
2022-10-23T06:53:06.485Z,99312.16
2022-10-23T06:58:10.584Z,99310.34
2022-10-23T07:00:53.038Z,99301.59
2022-10-23T07:03:20.192Z,99298.25
2022-10-23T07:05:50.064Z,99297.44
2022-10-23T07:08:17.209Z,99292.22
2022-10-23T07:10:48.092Z,99287.84
2022-10-23T07:13:19.705Z,99283.72
2022-10-23T07:16:11.264Z,99277.47
2022-10-23T07:18:38.298Z,99283.59
2022-10-23T07:21:20.372Z,99277.72
2022-10-23T07:23:49.409Z,99278.66
2022-10-23T07:26:17.183Z,99276.81
2022-10-23T07:28:45.236Z,99279.19
2022-10-23T07:31:14.434Z,99284.25
2022-10-23T07:34:04.569Z,99271.75
2022-10-23T07:36:32.153Z,99278.03
2022-10-23T07:38:59.611Z,99275.31
2022-10-23T07:41:27.573Z,99274.50
2022-10-23T07:43:54.536Z,99269.44
2022-10-23T07:46:21.452Z,99272.13
2022-10-23T07:48:48.443Z,99274.28
2022-10-23T07:51:16.871Z,99267.94
2022-10-23T07:53:51.220Z,99272.50
2022-10-23T07:56:36.673Z,99269.97
2022-10-23T07:59:14.429Z,99264.50
2022-10-23T08:01:47.371Z,99202.41
2022-10-23T08:04:15.203Z,99264.94
2022-10-23T08:06:53.828Z,99263.03
2022-10-23T08:09:20.921Z,99272.66
2022-10-23T08:11:48.367Z,99263.84
2022-10-23T08:14:18.898Z,99270.66
2022-10-23T08:16:47.365Z,99268.66
2022-10-23T08:19:17.265Z,99267.16
2022-10-23T08:21:45.847Z,99267.19
2022-10-23T08:24:14.144Z,99262.03
2022-10-23T08:26:43.771Z,99263.81
2022-10-23T08:29:12.312Z,99260.59
2022-10-23T08:31:40.116Z,99261.22
2022-10-23T08:34:13.461Z,99255.78
2022-10-23T08:36:42.902Z,99258.34
2022-10-23T08:39:11.556Z,99257.47
2022-10-23T08:41:43.949Z,99258.22
2022-10-23T08:44:35.022Z,99253.53
2022-10-23T08:47:10.893Z,99252.09
2022-10-23T08:50:10.962Z,99252.56
2022-10-23T08:52:41.879Z,99249.78
2022-10-23T08:55:24.330Z,99249.75
2022-10-23T08:58:00.883Z,99242.06
2022-10-23T09:00:28.118Z,99241.44
2022-10-23T09:02:55.553Z,99228.84
2022-10-23T09:05:29.051Z,99225.72
2022-10-23T09:08:04.767Z,99225.22
2022-10-23T09:10:34.681Z,99215.19
2022-10-23T09:13:10.109Z,99206.94
2022-10-23T09:15:42.560Z,99212.25
2022-10-23T09:18:13.994Z,99203.16
2022-10-23T09:20:42.589Z,99205.88
2022-10-23T09:23:15.664Z,99205.28
2022-10-23T09:25:43.081Z,99202.81
2022-10-23T09:28:19.906Z,99207.53
2022-10-23T09:30:47.713Z,99205.22
2022-10-23T09:33:25.197Z,99201.81
2022-10-23T09:35:52.100Z,99195.50
2022-10-23T09:38:29.996Z,99201.94
2022-10-23T09:40:59.074Z,99190.06
2022-10-23T09:43:27.689Z,99187.47
2022-10-23T09:46:03.093Z,99192.00
2022-10-23T09:48:30.762Z,99190.94
2022-10-23T09:50:58.818Z,99191.75
2022-10-23T09:53:25.732Z,99192.44
2022-10-23T09:55:56.784Z,99185.06
2022-10-23T09:58:29.679Z,99178.47
2022-10-23T10:00:57.528Z,99185.69
2022-10-23T10:03:48.506Z,99176.97
2022-10-23T10:06:33.825Z,99171.63
2022-10-23T10:09:03.861Z,99172.25
2022-10-23T10:11:37.449Z,99164.75
2022-10-23T10:14:20.331Z,99171.03
2022-10-23T10:16:56.413Z,99157.56
2022-10-23T10:19:41.987Z,99161.44
2022-10-23T10:22:16.909Z,99157.28
2022-10-23T10:24:52.510Z,99151.16
2022-10-23T10:27:31.679Z,99152.97
2022-10-23T10:29:58.615Z,99159.38
2022-10-23T10:32:40.203Z,99154.19
2022-10-23T10:35:19.008Z,99155.97
2022-10-23T10:37:55.230Z,99149.97
2022-10-23T10:40:30.497Z,99143.91
2022-10-23T10:43:19.056Z,99142.78
2022-10-23T10:45:49.881Z,99141.03
2022-10-23T10:48:19.852Z,99129.59
2022-10-23T10:51:07.636Z,99133.03
2022-10-23T10:54:01.386Z,99131.94
2022-10-23T10:56:31.490Z,99126.56
2022-10-23T10:59:01.241Z,99119.53
2022-10-23T11:01:35.414Z,99115.66
2022-10-23T11:04:02.481Z,99114.03
2022-10-23T11:06:31.036Z,99113.03
2022-10-23T11:09:19.395Z,99109.53
2022-10-23T11:11:48.808Z,99100.81
2022-10-23T11:14:16.973Z,99099.75
2022-10-23T11:16:46.967Z,99091.03
2022-10-23T11:19:14.448Z,99089.16
2022-10-23T11:22:07.839Z,99084.75
2022-10-23T11:24:55.794Z,99080.59
2022-10-23T11:27:36.109Z,99079.78
2022-10-23T11:30:24.352Z,99081.72
2022-10-23T11:33:10.138Z,99065.91
2022-10-23T11:35:40.142Z,99064.81
2022-10-23T11:38:13.300Z,99070.13
2022-10-23T11:40:48.254Z,99067.69
2022-10-23T11:43:26.050Z,99068.03
2022-10-23T11:45:53.016Z,99058.44
2022-10-23T11:48:21.509Z,99059.44
2022-10-23T11:50:48.757Z,99050.59
2022-10-23T11:53:26.965Z,99050.56
2022-10-23T11:56:20.209Z,99053.50
2022-10-23T11:58:48.987Z,99053.56
2022-10-23T12:01:26.261Z,99040.38
2022-10-23T12:04:02.393Z,99041.75
2022-10-23T12:06:38.380Z,99036.50
2022-10-23T12:09:07.034Z,99039.19
2022-10-23T12:11:48.259Z,99046.25
2022-10-23T12:14:29.024Z,99039.41
2022-10-23T12:16:55.975Z,99044.66
2022-10-23T12:19:24.880Z,99047.25
2022-10-23T12:21:53.140Z,99050.09
2022-10-23T12:24:40.013Z,99043.06
2022-10-23T12:27:06.989Z,99037.75
2022-10-23T12:29:53.259Z,99035.91
2022-10-23T12:32:47.042Z,99031.59
2022-10-23T12:35:24.753Z,99030.91
2022-10-23T12:38:06.729Z,99023.63
2022-10-23T12:40:33.891Z,99023.25
2022-10-23T12:43:01.492Z,99030.97
2022-10-23T12:45:36.785Z,99020.44
2022-10-23T12:48:03.836Z,99014.63
2022-10-23T12:50:31.674Z,99013.03
2022-10-23T12:53:01.227Z,99016.72
2022-10-23T12:55:52.758Z,99011.81
2022-10-23T12:58:24.037Z,99012.03
2022-10-23T13:00:54.952Z,99008.63
2022-10-23T13:03:24.173Z,99010.28
2022-10-23T13:05:52.648Z,99005.75
2022-10-23T13:08:20.789Z,99003.00
2022-10-23T13:11:10.055Z,98995.94
2022-10-23T13:13:40.888Z,98992.22
2022-10-23T13:16:15.044Z,98993.91
2022-10-23T13:18:42.295Z,98991.28
2022-10-23T13:21:16.244Z,98988.66
2022-10-23T13:23:43.921Z,98985.09
2022-10-23T13:26:19.919Z,98985.09
2022-10-23T13:28:47.184Z,98983.34
2022-10-23T13:31:25.016Z,98976.13
2022-10-23T13:34:12.565Z,98984.78
2022-10-23T13:36:53.264Z,98974.97
2022-10-23T13:39:24.781Z,98980.03
2022-10-23T13:41:51.985Z,98974.09
2022-10-23T13:44:20.404Z,98973.44
2022-10-23T13:46:48.543Z,98975.16
2022-10-23T13:49:16.316Z,98975.09
2022-10-23T13:51:48.776Z,98878.88
2022-10-23T13:54:17.605Z,98970.63
2022-10-23T13:56:44.953Z,98970.69
2022-10-23T13:59:12.393Z,98971.59
2022-10-23T14:01:40.071Z,98968.31
2022-10-23T14:04:07.124Z,98962.25
2022-10-23T14:06:34.517Z,98970.94
2022-10-23T14:09:01.581Z,98967.56
2022-10-23T14:11:28.523Z,98961.53
2022-10-23T14:13:55.524Z,98968.47
2022-10-23T14:16:23.520Z,98969.09
2022-10-23T14:18:50.538Z,98969.66
2022-10-23T14:21:20.001Z,98962.38
2022-10-23T14:23:47.673Z,98958.66
2022-10-23T14:26:16.108Z,98953.19
2022-10-23T14:28:43.974Z,98955.78
2022-10-23T14:31:12.100Z,98940.97
2022-10-23T14:33:39.709Z,98946.84
2022-10-23T14:36:06.997Z,98952.22
2022-10-23T14:38:34.241Z,98939.16
2022-10-23T14:41:01.416Z,98940.00
2022-10-23T14:43:28.390Z,98944.28
2022-10-23T14:45:55.337Z,98930.41
2022-10-23T14:48:22.271Z,98933.88
2022-10-23T14:50:49.646Z,98938.16
2022-10-23T14:53:17.124Z,98935.31
2022-10-23T14:55:44.045Z,98929.97
2022-10-23T14:58:11.025Z,98928.97
2022-10-23T15:00:39.544Z,98924.63
2022-10-23T15:03:06.528Z,98927.25
2022-10-23T15:05:33.549Z,98923.59
2022-10-23T15:08:01.787Z,98922.47
2022-10-23T15:10:28.860Z,98917.16
2022-10-23T15:12:55.745Z,98913.72
2022-10-23T15:15:22.913Z,98910.31
2022-10-23T15:17:49.841Z,98909.38
2022-10-23T15:20:16.843Z,98905.84
2022-10-23T15:22:44.167Z,98913.72
2022-10-23T15:25:14.242Z,98903.34
2022-10-23T15:27:43.963Z,98904.06
2022-10-23T15:30:11.524Z,98899.72
2022-10-23T15:32:38.504Z,98907.81
2022-10-23T15:35:05.483Z,98912.13
2022-10-23T15:37:32.414Z,98911.09
2022-10-23T15:40:01.409Z,98908.19
2022-10-23T15:42:30.351Z,98914.53
2022-10-23T15:44:57.309Z,98904.09
2022-10-23T15:47:24.251Z,98905.19
2022-10-23T15:49:51.202Z,98898.97
2022-10-23T15:52:18.162Z,98901.38
2022-10-23T15:54:45.373Z,98913.53
2022-10-23T15:57:12.276Z,98896.88
2022-10-23T15:59:39.307Z,98901.38
2022-10-23T16:02:06.325Z,98889.78
2022-10-23T16:04:34.273Z,98897.53
2022-10-23T16:07:01.170Z,98901.69
2022-10-23T16:09:28.164Z,98903.31
2022-10-23T16:11:55.151Z,98896.41
2022-10-23T16:14:22.087Z,98899.00
2022-10-23T16:16:49.032Z,98902.44
2022-10-23T16:19:16.077Z,98894.66
2022-10-23T16:21:43.082Z,98891.09
2022-10-23T16:24:11.095Z,98898.84
2022-10-23T16:26:38.567Z,98895.97
2022-10-23T16:29:07.075Z,98884.53
2022-10-23T16:31:34.212Z,98884.25
2022-10-23T16:34:02.032Z,98877.16
2022-10-23T16:36:29.487Z,98878.84
2022-10-23T16:39:17.485Z,98875.22
2022-10-23T16:42:02.994Z,98870.50
2022-10-23T16:47:24.292Z,98864.31
2022-10-23T16:49:51.255Z,98861.66
2022-10-23T16:52:18.211Z,98867.63
2022-10-23T16:54:45.244Z,98861.19
2022-10-23T16:57:12.220Z,98861.78
2022-10-23T16:59:39.231Z,98859.78
2022-10-23T17:02:06.289Z,98856.91
2022-10-23T17:04:33.509Z,98858.41
2022-10-23T17:07:00.576Z,98858.22
2022-10-23T17:09:31.352Z,98849.47
2022-10-23T17:11:59.101Z,98850.41
2022-10-23T17:14:29.276Z,98860.84
2022-10-23T17:17:02.718Z,98856.38
2022-10-23T17:19:47.065Z,98848.47
2022-10-23T17:22:14.419Z,98843.97
2022-10-23T17:24:43.539Z,98843.97
2022-10-23T17:27:12.236Z,98841.25
2022-10-23T17:29:39.177Z,98831.66
2022-10-23T17:32:06.359Z,98829.88
2022-10-23T17:34:33.371Z,98835.28
2022-10-23T17:37:00.532Z,98830.97
2022-10-23T17:39:28.735Z,98823.13
2022-10-23T17:41:56.072Z,98818.84
2022-10-23T17:44:23.235Z,98820.47
2022-10-23T17:46:53.378Z,98816.06
2022-10-23T17:49:20.867Z,98806.38
2022-10-23T17:51:50.665Z,98810.00
2022-10-23T17:54:17.646Z,98804.75
2022-10-23T17:56:45.388Z,98804.53
2022-10-23T17:59:14.031Z,98798.34
2022-10-23T18:01:44.126Z,98796.56
2022-10-23T18:04:11.223Z,98796.41
2022-10-23T18:06:42.857Z,98798.06
2022-10-23T18:09:10.613Z,98798.91
2022-10-23T18:11:40.653Z,98795.31
2022-10-23T18:14:11.074Z,98787.38
2022-10-23T18:16:38.548Z,98785.56
2022-10-23T18:19:05.582Z,98786.31
2022-10-23T18:21:32.593Z,98787.31
2022-10-23T18:24:00.454Z,98780.25
2022-10-23T18:26:30.037Z,98778.63
2022-10-23T18:28:58.444Z,98769.88
2022-10-23T18:31:27.184Z,98776.03
2022-10-23T18:33:58.562Z,98772.56
2022-10-23T18:36:27.189Z,98770.63
2022-10-23T18:41:23.888Z,98776.53
2022-10-23T18:43:51.837Z,98772.13
2022-10-23T18:46:19.264Z,98768.56
2022-10-23T18:48:46.697Z,98769.34
2022-10-23T18:51:15.835Z,98769.25
2022-10-23T18:53:46.807Z,98765.75
2022-10-23T18:56:14.652Z,98768.34
2022-10-23T18:58:41.685Z,98770.03
2022-10-23T19:01:08.768Z,98767.34
2022-10-23T19:03:35.797Z,98765.59
2022-10-23T19:06:02.797Z,98762.06
2022-10-23T19:08:29.813Z,98766.41
2022-10-23T19:10:57.762Z,98758.44
2022-10-23T19:13:24.663Z,98754.94
2022-10-23T19:15:51.654Z,98744.41
2022-10-23T19:18:18.697Z,98754.78
2022-10-23T19:20:45.889Z,98749.53
2022-10-23T19:23:15.243Z,98748.78
2022-10-23T19:25:45.450Z,98747.09
2022-10-23T19:28:12.879Z,98737.34
2022-10-23T19:30:40.119Z,98737.25
2022-10-23T19:33:07.101Z,98743.31
2022-10-23T19:35:34.127Z,98744.16
2022-10-23T19:38:01.338Z,98743.31
2022-10-23T19:40:28.401Z,98740.72
2022-10-23T19:42:55.475Z,98745.09
2022-10-23T19:45:22.980Z,98731.81
2022-10-23T19:47:50.026Z,98736.09
2022-10-23T19:50:17.006Z,98741.47
2022-10-23T19:52:43.958Z,98740.50
2022-10-23T19:55:10.876Z,98745.63
2022-10-23T19:57:38.598Z,98743.94
2022-10-23T20:00:06.965Z,98739.59
2022-10-23T20:02:37.164Z,98741.34
2022-10-23T20:05:07.938Z,98732.69
2022-10-23T20:07:36.070Z,98723.84
2022-10-23T20:12:31.735Z,98714.94
2022-10-23T20:14:58.854Z,98716.56
2022-10-23T20:17:25.842Z,98625.28
2022-10-23T20:19:52.934Z,98712.94
2022-10-23T20:22:20.485Z,98719.91
2022-10-23T20:24:47.571Z,98711.13
2022-10-23T20:27:14.954Z,98716.34
2022-10-23T20:29:42.625Z,98710.28
2022-10-23T20:32:09.629Z,98709.44
2022-10-23T20:34:36.539Z,98716.41
2022-10-23T20:37:03.689Z,98707.59
2022-10-23T20:39:33.457Z,98713.94
2022-10-23T20:42:00.559Z,98705.09
2022-10-23T20:44:27.541Z,98701.59
2022-10-23T20:46:54.882Z,98706.88
2022-10-23T20:49:22.095Z,98703.41
2022-10-23T20:51:55.783Z,98710.28
2022-10-23T20:54:24.286Z,98694.53
2022-10-23T20:56:51.265Z,98696.34
2022-10-23T20:59:18.956Z,98688.53
2022-10-23T21:01:49.650Z,98698.19
2022-10-23T21:04:18.221Z,98701.69
2022-10-23T21:07:08.382Z,98659.75
2022-10-23T21:09:32.409Z,98691.22
2022-10-23T21:11:59.315Z,98695.94
2022-10-23T21:14:26.328Z,98694.06
2022-10-23T21:16:53.339Z,98698.44
2022-10-23T21:19:20.258Z,98697.66
2022-10-23T21:21:47.191Z,98693.47
2022-10-23T21:24:16.586Z,98697.97
2022-10-23T21:26:44.692Z,98701.63
2022-10-23T21:29:20.498Z,98698.19
2022-10-23T21:32:01.622Z,98697.25
2022-10-23T21:34:29.158Z,98688.34
2022-10-23T21:37:13.362Z,98691.69
2022-10-23T21:39:41.751Z,98689.91
2022-10-23T21:42:08.776Z,98682.84
2022-10-23T21:44:35.781Z,98698.50
2022-10-23T21:47:02.779Z,98693.41
2022-10-23T21:49:29.899Z,98685.56
2022-10-23T21:51:56.796Z,98692.72
2022-10-23T21:54:23.771Z,98696.34
2022-10-23T21:56:51.891Z,98692.09
2022-10-23T21:59:24.413Z,98694.84
2022-10-23T22:01:52.252Z,98697.63
2022-10-23T22:04:20.025Z,98697.78
2022-10-23T22:06:47.869Z,98700.66
2022-10-23T22:09:16.398Z,98646.94
2022-10-23T22:11:43.443Z,98693.84
2022-10-23T22:14:10.588Z,98699.16
2022-10-23T22:16:37.529Z,98696.63
2022-10-23T22:19:04.477Z,98700.16
2022-10-23T22:21:31.539Z,98700.16
2022-10-23T22:23:59.593Z,98693.13
2022-10-23T22:26:26.611Z,98700.28
2022-10-23T22:28:54.555Z,98696.75
2022-10-23T22:31:22.843Z,98703.81
2022-10-23T22:33:49.938Z,98701.28
2022-10-23T22:36:16.862Z,98710.16
2022-10-23T22:38:44.172Z,98705.75
2022-10-23T22:41:11.221Z,98701.53
2022-10-23T22:43:38.276Z,98706.13
2022-10-23T22:46:06.538Z,98707.97
2022-10-23T22:48:34.052Z,98709.75
2022-10-23T22:51:01.075Z,98707.13
2022-10-23T22:53:28.148Z,98702.84
2022-10-23T22:55:55.547Z,98699.38
2022-10-23T22:58:23.364Z,98695.91
2022-10-23T23:00:51.300Z,98699.38
2022-10-23T23:03:18.322Z,98701.91
2022-10-23T23:05:46.917Z,98703.00
2022-10-23T23:08:14.763Z,98700.38
2022-10-23T23:10:41.762Z,98700.53
2022-10-23T23:13:08.775Z,98690.00
2022-10-23T23:15:44.797Z,98696.09
2022-10-23T23:18:11.758Z,98688.22
2022-10-23T23:20:38.690Z,98691.63
2022-10-23T23:23:05.655Z,98691.47
2022-10-23T23:25:32.627Z,98687.91
2022-10-23T23:27:59.662Z,98691.53
2022-10-23T23:30:26.737Z,98695.09
2022-10-23T23:32:53.792Z,98692.53
2022-10-23T23:35:20.874Z,98696.94
2022-10-23T23:37:48.025Z,98700.59
2022-10-23T23:40:14.958Z,98698.09
2022-10-23T23:42:42.040Z,98707.63
2022-10-23T23:45:14.667Z,98704.84
2022-10-23T23:47:42.792Z,98709.28
2022-10-23T23:50:11.723Z,98710.13
2022-10-23T23:52:38.913Z,98713.69
2022-10-23T23:55:06.190Z,98713.75
2022-10-23T23:57:33.207Z,98698.00
